createdAt,value
2023-01-17T00:01:29.380Z,3.93
2023-01-17T00:04:14.610Z,4.30
2023-01-17T00:06:59.772Z,3.63
2023-01-17T00:09:44.840Z,4.30
2023-01-17T00:12:11.548Z,4.63
2023-01-17T00:14:38.103Z,4.17
2023-01-17T00:17:04.706Z,4.07
2023-01-17T00:19:49.557Z,4.40
2023-01-17T00:22:48.025Z,4.67
2023-01-17T00:25:38.322Z,4.27
2023-01-17T00:28:05.895Z,3.97
2023-01-17T00:30:32.722Z,3.70
2023-01-17T00:32:59.718Z,4.60
2023-01-17T00:35:28.584Z,4.40
2023-01-17T00:38:11.991Z,3.77
2023-01-17T00:40:40.903Z,4.90
2023-01-17T00:43:27.367Z,4.60
2023-01-17T00:46:13.105Z,4.30
2023-01-17T00:48:58.783Z,4.87
2023-01-17T00:51:45.158Z,4.00
2023-01-17T00:54:36.855Z,4.40
2023-01-17T00:57:23.499Z,4.83
2023-01-17T01:00:08.939Z,4.07
2023-01-17T01:02:54.759Z,4.53
2023-01-17T01:05:40.828Z,4.50
2023-01-17T01:08:44.016Z,5.13
2023-01-17T01:11:33.220Z,5.00
2023-01-17T01:14:19.436Z,4.90
2023-01-17T01:17:04.558Z,4.43
2023-01-17T01:19:49.911Z,4.63
2023-01-17T01:22:35.199Z,4.90
2023-01-17T01:25:20.670Z,4.50
2023-01-17T01:28:05.886Z,4.53
2023-01-17T01:30:51.017Z,5.30
2023-01-17T01:33:20.323Z,5.10
2023-01-17T01:35:51.494Z,4.80
2023-01-17T01:38:20.502Z,5.20
2023-01-17T01:40:50.235Z,4.47
2023-01-17T01:43:19.977Z,5.17
2023-01-17T01:45:57.177Z,4.90
2023-01-17T01:48:44.184Z,5.37
2023-01-17T01:51:19.509Z,5.10
2023-01-17T01:53:49.321Z,4.70
2023-01-17T01:56:16.454Z,5.47
2023-01-17T01:58:50.144Z,5.33
2023-01-17T02:01:17.988Z,4.90
2023-01-17T02:03:46.527Z,5.13
2023-01-17T02:06:41.311Z,5.10
2023-01-17T02:09:11.728Z,5.30
2023-01-17T02:11:40.063Z,5.20
2023-01-17T02:14:06.679Z,4.93
2023-01-17T02:17:09.853Z,5.47
2023-01-17T02:20:00.376Z,4.30
2023-01-17T02:23:04.004Z,5.47
2023-01-17T02:25:57.045Z,4.53
2023-01-17T02:28:56.936Z,5.67
2023-01-17T02:31:37.627Z,5.40
2023-01-17T02:34:30.197Z,5.00
2023-01-17T02:37:08.147Z,5.43
2023-01-17T02:39:49.328Z,5.77
2023-01-17T02:42:19.608Z,5.87
2023-01-17T02:44:46.352Z,6.00
2023-01-17T02:47:19.413Z,4.73
2023-01-17T02:49:45.953Z,5.63
2023-01-17T02:52:15.495Z,5.63
2023-01-17T02:55:01.330Z,5.80
2023-01-17T02:57:34.008Z,5.20
2023-01-17T03:00:10.609Z,5.40
2023-01-17T03:03:01.575Z,5.30
2023-01-17T03:05:48.682Z,6.10
2023-01-17T03:08:16.223Z,5.50
2023-01-17T03:10:44.245Z,5.40
2023-01-17T03:13:11.086Z,5.90
2023-01-17T03:15:39.385Z,5.80
2023-01-17T03:18:13.485Z,6.10
2023-01-17T03:20:40.375Z,5.70
2023-01-17T03:23:07.153Z,5.93
2023-01-17T03:25:34.058Z,5.73
2023-01-17T03:28:00.751Z,6.33
2023-01-17T03:30:27.423Z,6.30
2023-01-17T03:32:54.010Z,6.20
2023-01-17T03:35:20.770Z,6.10
2023-01-17T03:37:47.488Z,5.83
2023-01-17T03:40:14.098Z,6.27
2023-01-17T03:42:40.904Z,7.00
2023-01-17T03:45:08.038Z,7.00
2023-01-17T03:47:35.819Z,8.53
2023-01-17T03:50:03.226Z,6.93
2023-01-17T03:52:29.746Z,29.83
2023-01-17T03:54:56.501Z,20.03
2023-01-17T03:57:23.215Z,7.40
2023-01-17T03:59:49.852Z,7.67
2023-01-17T04:02:16.526Z,7.00
2023-01-17T04:04:43.120Z,7.23
2023-01-17T04:07:09.669Z,6.97
2023-01-17T04:09:36.537Z,6.83
2023-01-17T04:12:03.642Z,6.70
2023-01-17T04:14:30.220Z,6.27
2023-01-17T04:16:57.217Z,6.73
2023-01-17T04:19:23.909Z,6.57
2023-01-17T04:21:50.486Z,5.97
2023-01-17T04:24:18.115Z,6.30
2023-01-17T04:26:44.804Z,6.60
2023-01-17T04:29:11.439Z,11.97
2023-01-17T04:31:38.073Z,6.20
2023-01-17T04:34:04.701Z,5.67
2023-01-17T04:36:31.527Z,6.43
2023-01-17T04:38:58.145Z,6.33
2023-01-17T04:41:24.721Z,5.83
2023-01-17T04:43:51.282Z,5.97
2023-01-17T04:46:17.990Z,6.57
2023-01-17T04:48:44.566Z,5.90
2023-01-17T04:51:11.155Z,6.10
2023-01-17T04:53:37.818Z,6.07
2023-01-17T04:56:04.676Z,6.03
2023-01-17T04:58:31.621Z,5.57
2023-01-17T05:01:02.442Z,5.80
2023-01-17T05:03:29.514Z,6.07
2023-01-17T05:05:56.074Z,6.53
2023-01-17T05:08:22.661Z,7.47
2023-01-17T05:10:49.326Z,6.60
2023-01-17T05:13:16.187Z,7.10
2023-01-17T05:15:42.984Z,6.93
2023-01-17T05:18:14.722Z,6.93
2023-01-17T05:20:41.683Z,6.57
2023-01-17T05:23:08.702Z,7.23
2023-01-17T05:25:35.976Z,7.90
2023-01-17T05:28:03.431Z,7.20
2023-01-17T05:30:31.519Z,8.27
2023-01-17T05:32:59.256Z,7.77
2023-01-17T05:35:29.236Z,7.97
2023-01-17T05:37:56.322Z,8.27
2023-01-17T05:40:26.039Z,8.70
2023-01-17T05:42:54.634Z,8.90
2023-01-17T05:45:22.941Z,10.83
2023-01-17T05:47:51.573Z,16.13
2023-01-17T05:50:25.367Z,18.90
2023-01-17T05:53:06.562Z,66.47
2023-01-17T05:55:34.186Z,87.03
2023-01-17T05:58:01.390Z,80.00
2023-01-17T06:00:29.153Z,16.93
2023-01-17T06:02:57.848Z,12.07
2023-01-17T06:05:24.779Z,10.07
2023-01-17T06:07:51.725Z,12.27
2023-01-17T06:10:20.043Z,9.83
2023-01-17T06:12:47.732Z,9.63
2023-01-17T06:15:15.973Z,9.60
2023-01-17T06:17:42.706Z,9.93
2023-01-17T06:20:11.303Z,11.63
2023-01-17T06:22:37.962Z,11.67
2023-01-17T06:25:05.214Z,7.40
2023-01-17T06:27:31.810Z,7.97
2023-01-17T06:29:58.559Z,7.67
2023-01-17T06:32:25.127Z,7.93
2023-01-17T06:34:51.657Z,6.10
2023-01-17T06:37:18.252Z,6.20
2023-01-17T06:39:44.996Z,6.60
2023-01-17T06:42:11.601Z,7.70
2023-01-17T06:44:38.455Z,5.87
2023-01-17T06:47:05.022Z,7.67
2023-01-17T06:49:31.651Z,7.43
2023-01-17T06:51:58.561Z,7.73
2023-01-17T06:54:25.144Z,8.30
2023-01-17T06:56:51.730Z,8.57
2023-01-17T06:59:18.334Z,9.13
2023-01-17T07:01:45.051Z,6.17
2023-01-17T07:04:11.662Z,6.23
2023-01-17T07:06:38.218Z,6.57
2023-01-17T07:09:04.876Z,7.07
2023-01-17T07:11:31.854Z,5.40
2023-01-17T07:13:58.474Z,6.20
2023-01-17T07:16:25.103Z,10.87
2023-01-17T07:18:51.862Z,10.43
2023-01-17T07:21:18.743Z,10.57
2023-01-17T07:23:45.385Z,8.93
2023-01-17T07:26:11.991Z,11.50
2023-01-17T07:28:38.597Z,14.77
2023-01-17T07:31:08.016Z,26.23
2023-01-17T07:33:35.440Z,26.83
2023-01-17T07:36:09.280Z,16.93
2023-01-17T07:38:36.026Z,14.77
2023-01-17T07:41:02.956Z,18.97
2023-01-17T07:43:29.554Z,17.43
2023-01-17T07:45:56.226Z,23.10
2023-01-17T07:48:24.615Z,25.93
2023-01-17T07:50:53.070Z,26.47
2023-01-17T07:53:19.704Z,26.07
2023-01-17T07:55:46.257Z,24.77
2023-01-17T07:58:14.956Z,22.60
2023-01-17T08:00:44.074Z,22.23
2023-01-17T08:03:16.024Z,20.83
2023-01-17T08:05:44.190Z,19.47
2023-01-17T08:08:10.796Z,19.53
2023-01-17T08:10:37.347Z,20.03
2023-01-17T08:13:04.149Z,19.03
2023-01-17T08:15:30.719Z,25.67
2023-01-17T08:17:58.735Z,30.37
2023-01-17T08:20:27.653Z,16.43
2023-01-17T08:22:56.213Z,16.33
2023-01-17T08:25:25.138Z,15.10
2023-01-17T08:27:56.252Z,13.87
2023-01-17T08:30:22.986Z,12.73
2023-01-17T08:32:49.562Z,13.03
2023-01-17T08:35:16.187Z,11.97
2023-01-17T08:37:42.890Z,10.23
2023-01-17T08:40:11.158Z,12.93
2023-01-17T08:42:40.158Z,12.80
2023-01-17T08:45:09.513Z,12.10
2023-01-17T08:47:36.445Z,12.57
2023-01-17T08:50:06.805Z,11.13
2023-01-17T08:52:33.964Z,31.53
2023-01-17T08:55:00.767Z,14.57
2023-01-17T08:57:27.881Z,13.13
2023-01-17T08:59:54.401Z,16.87
2023-01-17T09:02:21.286Z,22.60
2023-01-17T09:04:49.253Z,24.30
2023-01-17T09:07:20.680Z,17.60
2023-01-17T09:09:47.475Z,14.43
2023-01-17T09:12:14.124Z,11.00
2023-01-17T09:14:40.651Z,14.00
2023-01-17T09:17:07.309Z,15.83
2023-01-17T09:19:35.604Z,14.37
2023-01-17T09:22:04.696Z,17.30
2023-01-17T09:24:32.774Z,18.00
2023-01-17T09:27:00.355Z,31.33
2023-01-17T09:29:27.371Z,25.03
2023-01-17T09:31:54.084Z,28.90
2023-01-17T09:34:21.276Z,33.17
2023-01-17T09:36:47.895Z,29.47
2023-01-17T09:39:15.309Z,22.67
2023-01-17T09:41:57.073Z,25.30
2023-01-17T09:44:44.003Z,44.30
2023-01-17T09:47:28.913Z,26.30
2023-01-17T09:50:00.057Z,16.50
2023-01-17T09:52:30.643Z,18.83
2023-01-17T09:54:57.394Z,28.47
2023-01-17T09:57:29.927Z,85.37
2023-01-17T10:00:41.391Z,50.43
2023-01-17T10:03:50.238Z,39.33
2023-01-17T10:06:31.130Z,29.30
2023-01-17T10:09:00.346Z,32.77
2023-01-17T10:11:46.461Z,23.80
2023-01-17T10:14:12.931Z,16.43
2023-01-17T10:17:08.586Z,16.53
2023-01-17T10:19:59.949Z,35.60
2023-01-17T10:23:07.979Z,25.80
2023-01-17T10:25:42.930Z,36.07
2023-01-17T10:28:12.365Z,33.97
2023-01-17T10:30:48.837Z,46.20
2023-01-17T10:33:21.941Z,34.73
2023-01-17T10:35:54.039Z,34.63
2023-01-17T10:38:25.786Z,27.43
2023-01-17T10:40:59.697Z,19.50
2023-01-17T10:43:53.420Z,19.37
2023-01-17T10:46:28.597Z,18.43
2023-01-17T10:48:56.732Z,13.20
2023-01-17T10:51:50.030Z,13.87
2023-01-17T10:54:28.350Z,15.93
2023-01-17T10:56:55.093Z,20.33
2023-01-17T10:59:33.815Z,14.90
2023-01-17T11:02:06.968Z,13.63
2023-01-17T11:04:40.513Z,12.83
2023-01-17T11:07:17.719Z,12.73
2023-01-17T11:09:46.458Z,12.30
2023-01-17T11:12:24.763Z,12.03
2023-01-17T11:15:17.900Z,12.20
2023-01-17T11:17:53.165Z,10.73
2023-01-17T11:20:32.798Z,12.93
2023-01-17T11:23:05.053Z,12.07
2023-01-17T11:25:35.781Z,12.50
2023-01-17T11:28:19.108Z,12.03
2023-01-17T11:31:07.903Z,11.13
2023-01-17T11:33:34.583Z,10.10
2023-01-17T11:36:01.134Z,10.93
2023-01-17T11:38:27.832Z,11.30
2023-01-17T11:41:14.364Z,11.13
2023-01-17T11:43:55.548Z,11.33
2023-01-17T11:46:22.635Z,9.93
2023-01-17T11:49:00.869Z,9.43
2023-01-17T11:51:29.940Z,8.90
2023-01-17T11:54:06.497Z,9.27
2023-01-17T11:56:36.656Z,7.67
2023-01-17T11:59:24.398Z,6.40
2023-01-17T12:01:58.143Z,5.97
2023-01-17T12:04:24.830Z,7.37
2023-01-17T12:07:13.311Z,6.60
2023-01-17T12:09:47.806Z,7.00
2023-01-17T12:12:42.377Z,7.07
2023-01-17T12:15:51.897Z,6.67
2023-01-17T12:18:41.360Z,4.40
2023-01-17T12:21:24.539Z,4.03
2023-01-17T12:24:18.251Z,5.27
2023-01-17T12:27:23.222Z,4.67
2023-01-17T12:30:16.054Z,5.33
2023-01-17T12:33:15.821Z,5.20
2023-01-17T12:36:09.470Z,4.87
2023-01-17T12:38:38.956Z,3.50
2023-01-17T12:41:20.212Z,3.40
2023-01-17T12:43:47.053Z,3.50
2023-01-17T12:46:39.042Z,3.33
2023-01-17T12:49:27.338Z,3.80
2023-01-17T12:52:03.393Z,3.30
2023-01-17T12:54:38.108Z,3.80
2023-01-17T12:57:31.867Z,3.40
2023-01-17T13:00:07.508Z,4.40
2023-01-17T13:02:52.861Z,3.57
2023-01-17T13:05:29.631Z,3.40
2023-01-17T13:08:34.339Z,3.83
2023-01-17T13:11:25.682Z,3.67
2023-01-17T13:13:53.461Z,3.07
2023-01-17T13:16:28.795Z,3.27
2023-01-17T13:19:01.811Z,3.13
2023-01-17T13:21:32.414Z,3.37
2023-01-17T13:24:17.216Z,3.67
2023-01-17T13:26:52.869Z,3.63
2023-01-17T13:29:46.997Z,3.47
2023-01-17T13:32:49.113Z,3.60
2023-01-17T13:35:45.364Z,3.80
2023-01-17T13:38:34.847Z,3.90
2023-01-17T13:41:10.060Z,3.60
2023-01-17T13:43:40.534Z,4.03
2023-01-17T13:46:07.870Z,3.57
2023-01-17T13:48:40.823Z,3.90
2023-01-17T13:51:11.461Z,3.80
2023-01-17T13:53:41.103Z,3.80
2023-01-17T13:56:19.949Z,3.50
2023-01-17T13:58:50.060Z,3.70
2023-01-17T14:01:22.686Z,3.60
2023-01-17T14:03:49.293Z,3.70
2023-01-17T14:06:37.553Z,3.50
2023-01-17T14:09:12.873Z,3.60
2023-01-17T14:11:57.673Z,3.50
2023-01-17T14:14:44.537Z,3.37
2023-01-17T14:17:20.520Z,3.90
2023-01-17T14:19:49.899Z,3.73
2023-01-17T14:22:19.515Z,3.47
2023-01-17T14:25:15.098Z,3.37
2023-01-17T14:27:50.672Z,3.33
2023-01-17T14:30:17.767Z,3.90
2023-01-17T14:33:10.470Z,3.60
2023-01-17T14:35:49.996Z,12.87
2023-01-17T14:38:21.739Z,17.07
2023-01-17T14:41:09.609Z,19.70
2023-01-17T14:43:42.159Z,8.50
2023-01-17T14:46:21.367Z,9.20
2023-01-17T14:48:48.026Z,11.97
2023-01-17T14:51:20.549Z,6.20
2023-01-17T14:53:58.652Z,9.70
2023-01-17T14:56:27.671Z,14.60
2023-01-17T14:59:06.199Z,8.90
2023-01-17T15:01:34.127Z,5.53
2023-01-17T15:04:00.888Z,5.57
2023-01-17T15:06:39.109Z,5.03
2023-01-17T15:09:21.376Z,4.83
2023-01-17T15:11:50.177Z,4.90
2023-01-17T15:14:38.608Z,4.63
2023-01-17T15:17:20.476Z,4.60
2023-01-17T15:19:57.525Z,4.70
2023-01-17T15:22:25.994Z,4.70
2023-01-17T15:24:53.626Z,4.37
2023-01-17T15:27:20.753Z,4.33
2023-01-17T15:29:48.196Z,5.07
2023-01-17T15:32:32.086Z,5.50
2023-01-17T15:35:02.519Z,4.47
2023-01-17T15:37:34.871Z,5.07
2023-01-17T15:40:20.658Z,4.80
2023-01-17T15:42:50.994Z,5.30
2023-01-17T15:45:22.961Z,4.60
2023-01-17T15:47:49.613Z,4.93
2023-01-17T15:50:28.587Z,4.63
2023-01-17T15:53:01.144Z,4.47
2023-01-17T15:55:32.088Z,4.47
2023-01-17T15:57:59.103Z,4.50
2023-01-17T16:00:37.795Z,6.57
2023-01-17T16:03:19.872Z,25.93
2023-01-17T16:05:47.051Z,26.63
2023-01-17T16:08:16.256Z,22.50
2023-01-17T16:10:43.763Z,5.20
2023-01-17T16:13:13.630Z,5.47
2023-01-17T16:15:43.062Z,24.40
2023-01-17T16:18:17.015Z,28.00
2023-01-17T16:20:48.314Z,14.13
2023-01-17T16:23:15.197Z,8.27
2023-01-17T16:25:41.950Z,6.60
2023-01-17T16:28:08.606Z,6.87
2023-01-17T16:30:35.302Z,9.97
2023-01-17T16:33:03.179Z,6.03
2023-01-17T16:35:32.577Z,4.53
2023-01-17T16:38:05.563Z,5.03
2023-01-17T16:40:39.137Z,5.03
2023-01-17T16:43:06.047Z,5.10
2023-01-17T16:45:43.411Z,5.00
2023-01-17T16:48:12.652Z,5.20
2023-01-17T16:50:48.070Z,5.77
2023-01-17T16:53:15.532Z,5.70
2023-01-17T16:55:43.182Z,5.10
2023-01-17T16:58:10.108Z,5.10
2023-01-17T17:00:36.900Z,5.97
2023-01-17T17:03:03.561Z,5.70
2023-01-17T17:05:33.429Z,26.63
2023-01-17T17:08:00.914Z,26.93
2023-01-17T17:10:27.830Z,50.80
2023-01-17T17:12:56.184Z,112.87
2023-01-17T17:15:22.919Z,58.80
2023-01-17T17:17:49.954Z,34.60
2023-01-17T17:20:17.500Z,11.33
2023-01-17T17:22:50.222Z,5.93
2023-01-17T17:25:17.727Z,5.07
2023-01-17T17:27:44.470Z,6.07
2023-01-17T17:30:12.494Z,5.57
2023-01-17T17:32:39.097Z,5.17
2023-01-17T17:35:06.344Z,5.67
2023-01-17T17:37:32.861Z,5.67
2023-01-17T17:39:59.579Z,5.33
2023-01-17T17:42:26.405Z,5.80
2023-01-17T17:44:53.609Z,5.90
2023-01-17T17:47:20.336Z,5.00
2023-01-17T17:49:46.946Z,5.30
2023-01-17T17:52:13.599Z,5.10
2023-01-17T17:54:40.262Z,5.43
2023-01-17T17:57:07.583Z,5.20
2023-01-17T17:59:34.538Z,5.10
2023-01-17T18:02:01.369Z,6.10
2023-01-17T18:04:28.134Z,7.67
2023-01-17T18:06:58.302Z,14.73
2023-01-17T18:09:26.771Z,7.13
2023-01-17T18:11:53.317Z,6.77
2023-01-17T18:14:22.182Z,5.75
2023-01-17T18:16:48.850Z,5.70
2023-01-17T18:19:19.124Z,6.20
2023-01-17T18:21:45.829Z,5.43
2023-01-17T18:24:16.762Z,5.97
2023-01-17T18:26:54.031Z,5.67
2023-01-17T18:29:22.207Z,5.07
2023-01-17T18:31:50.272Z,5.67
2023-01-17T18:34:21.264Z,6.63
2023-01-17T18:36:48.072Z,6.33
2023-01-17T18:39:20.079Z,7.37
2023-01-17T18:41:47.115Z,16.07
2023-01-17T18:44:13.742Z,28.37
2023-01-17T18:46:41.962Z,75.97
2023-01-17T18:49:11.571Z,37.13
2023-01-17T18:51:38.486Z,17.20
2023-01-17T18:54:07.001Z,7.97
2023-01-17T18:56:34.465Z,6.40
2023-01-17T18:59:01.933Z,6.73
2023-01-17T19:01:31.403Z,4.93
2023-01-17T19:04:00.821Z,5.47
2023-01-17T19:06:36.360Z,5.33
2023-01-17T19:09:04.217Z,4.83
2023-01-17T19:11:30.881Z,4.60
2023-01-17T19:13:57.589Z,4.63
2023-01-17T19:16:30.575Z,4.60
2023-01-17T19:19:01.678Z,4.60
2023-01-17T19:21:29.104Z,4.17
2023-01-17T19:23:57.182Z,4.80
2023-01-17T19:26:27.125Z,4.20
2023-01-17T19:28:56.239Z,4.70
2023-01-17T19:31:28.563Z,4.87
2023-01-17T19:33:57.582Z,5.20
2023-01-17T19:36:32.158Z,5.17
2023-01-17T19:39:04.816Z,5.00
2023-01-17T19:41:33.979Z,4.60
2023-01-17T19:44:05.519Z,5.90
2023-01-17T19:46:33.080Z,5.27
2023-01-17T19:49:00.260Z,5.50
2023-01-17T19:51:27.425Z,4.90
2023-01-17T19:53:54.647Z,4.80
2023-01-17T19:56:24.055Z,4.50
2023-01-17T19:58:51.145Z,4.87
2023-01-17T20:01:19.615Z,4.90
2023-01-17T20:03:47.131Z,4.93
2023-01-17T20:06:16.343Z,4.93
2023-01-17T20:08:43.577Z,5.17
2023-01-17T20:11:14.694Z,4.97
2023-01-17T20:13:44.694Z,4.87
2023-01-17T20:16:16.231Z,5.20
2023-01-17T20:18:43.717Z,5.13
2023-01-17T20:21:18.664Z,5.00
2023-01-17T20:23:50.070Z,5.40
2023-01-17T20:26:19.705Z,5.07
2023-01-17T20:28:48.847Z,5.47
2023-01-17T20:31:18.935Z,5.20
2023-01-17T20:33:47.104Z,5.13
2023-01-17T20:36:15.770Z,4.53
2023-01-17T20:38:45.699Z,5.00
2023-01-17T20:41:29.391Z,5.07
2023-01-17T20:43:58.765Z,4.97
2023-01-17T20:46:27.700Z,5.27
2023-01-17T20:48:56.299Z,5.43
2023-01-17T20:51:25.231Z,5.20
2023-01-17T20:54:00.839Z,5.33
2023-01-17T20:56:29.938Z,5.37
2023-01-17T20:58:56.585Z,5.07
2023-01-17T21:01:23.308Z,5.60
2023-01-17T21:03:53.208Z,5.63
2023-01-17T21:06:21.611Z,4.97
2023-01-17T21:08:48.742Z,4.40
2023-01-17T21:11:17.734Z,4.80
2023-01-17T21:13:44.688Z,5.40
2023-01-17T21:16:14.324Z,4.80
2023-01-17T21:18:41.017Z,5.17
2023-01-17T21:21:21.943Z,5.70
2023-01-17T21:23:50.380Z,4.80
2023-01-17T21:26:18.658Z,4.97
2023-01-17T21:28:46.943Z,5.33
2023-01-17T21:31:25.322Z,5.00
2023-01-17T21:33:57.623Z,5.33
2023-01-17T21:36:30.646Z,5.07
2023-01-17T21:38:58.683Z,4.87
2023-01-17T21:41:29.820Z,5.10
2023-01-17T21:44:01.302Z,5.03
2023-01-17T21:46:29.080Z,5.40
2023-01-17T21:48:57.541Z,5.20
2023-01-17T21:51:25.029Z,4.90
2023-01-17T21:53:51.646Z,5.23
2023-01-17T21:56:36.633Z,5.00
2023-01-17T21:59:03.500Z,4.73
2023-01-17T22:01:33.147Z,5.17
2023-01-17T22:04:02.938Z,4.67
2023-01-17T22:06:39.109Z,5.50
2023-01-17T22:09:06.161Z,5.70
2023-01-17T22:11:35.529Z,5.70
2023-01-17T22:14:04.955Z,5.00
2023-01-17T22:16:31.730Z,5.67
2023-01-17T22:18:58.642Z,5.43
2023-01-17T22:21:28.349Z,5.63
2023-01-17T22:23:57.440Z,5.53
2023-01-17T22:26:29.699Z,5.53
2023-01-17T22:29:01.092Z,6.07
2023-01-17T22:31:28.334Z,5.63
2023-01-17T22:34:03.018Z,4.67
2023-01-17T22:36:31.891Z,5.20
2023-01-17T22:38:58.731Z,5.33
2023-01-17T22:41:32.112Z,5.50
2023-01-17T22:44:02.085Z,6.33
2023-01-17T22:46:31.329Z,5.60
2023-01-17T22:48:59.236Z,5.40
2023-01-17T22:51:27.986Z,5.17
2023-01-17T22:53:57.123Z,5.77
2023-01-17T22:56:29.766Z,6.00
2023-01-17T22:58:58.214Z,5.03
2023-01-17T23:01:27.070Z,5.63
2023-01-17T23:04:02.560Z,5.47
2023-01-17T23:06:40.241Z,5.90
2023-01-17T23:09:10.667Z,5.67
2023-01-17T23:11:44.321Z,5.47
2023-01-17T23:14:15.848Z,5.13
2023-01-17T23:17:07.212Z,6.03
2023-01-17T23:19:36.888Z,6.00
2023-01-17T23:22:15.755Z,5.80
2023-01-17T23:24:54.191Z,5.67
2023-01-17T23:27:51.307Z,6.17
2023-01-17T23:30:25.076Z,5.47
2023-01-17T23:32:55.137Z,5.93
2023-01-17T23:35:25.290Z,5.77
2023-01-17T23:38:10.490Z,5.37
2023-01-17T23:40:38.436Z,5.70
2023-01-17T23:43:23.744Z,5.53
2023-01-17T23:45:52.168Z,5.80
2023-01-17T23:48:19.217Z,5.60
2023-01-17T23:50:47.159Z,5.63
2023-01-17T23:53:22.437Z,6.20
2023-01-17T23:55:56.830Z,5.13
2023-01-17T23:58:25.596Z,4.77
